Time;durP1;ratioP1;P1;durP2;ratioP2;P2;SDS_P1;SDS_P2;PMS_P1;PMS_P2;Temp;Humidity;BMP_temperature;BMP_pressure;BME280_temperature;BME280_humidity;BME280_pressure;Samples;Min_cycle;Max_cycle;Signal;HPM_P1;HPM_P2
2022/07/28 00:00:16;;;;;;;1.80;1.70;;;11.20;99.90;;;;;;5003947;28;20496;-53
2022/07/28 00:02:42;;;;;;;2.50;1.73;;;11.10;99.90;;;;;;5009446;28;20526;-52
2022/07/28 00:05:10;;;;;;;3.53;1.60;;;11.10;99.90;;;;;;5003644;28;20957;-53
2022/07/28 00:07:36;;;;;;;2.20;1.60;;;11.10;99.90;;;;;;5005599;28;20504;-52
2022/07/28 00:10:03;;;;;;;3.33;2.03;;;11.10;99.90;;;;;;5006253;28;20498;-52
2022/07/28 00:12:30;;;;;;;3.43;2.20;;;11.00;99.90;;;;;;5009428;28;20527;-54
2022/07/28 00:14:58;;;;;;;6.83;1.63;;;11.00;99.90;;;;;;5006716;28;20511;-53
2022/07/28 00:17:24;;;;;;;2.17;1.67;;;11.00;99.90;;;;;;4999610;28;20499;-52
2022/07/28 00:19:51;;;;;;;2.83;1.70;;;11.00;99.90;;;;;;5000093;28;20488;-53
2022/07/28 00:22:18;;;;;;;3.43;2.10;;;10.90;99.90;;;;;;5005887;28;20545;-52
2022/07/28 00:24:44;;;;;;;3.23;1.90;;;11.00;99.90;;;;;;5009021;28;20455;-53
2022/07/28 00:27:13;;;;;;;3.87;2.13;;;11.00;99.90;;;;;;5010040;28;20547;-53
2022/07/28 00:29:40;;;;;;;6.30;2.53;;;11.00;99.90;;;;;;5006187;28;20558;-53
2022/07/28 00:32:08;;;;;;;4.20;2.43;;;10.90;99.90;;;;;;5005968;28;20989;-53
2022/07/28 00:34:34;;;;;;;3.70;1.70;;;11.00;99.90;;;;;;4998054;28;20496;-54
2022/07/28 00:37:01;;;;;;;3.17;1.80;;;10.90;99.90;;;;;;5003509;28;20507;-53
2022/07/28 00:39:27;;;;;;;2.87;1.87;;;10.80;99.90;;;;;;5000993;28;20456;-53
2022/07/28 00:41:54;;;;;;;2.97;1.80;;;10.90;99.90;;;;;;5003229;28;21017;-52
2022/07/28 00:44:21;;;;;;;2.13;1.70;;;10.80;99.90;;;;;;5008970;28;21008;-52
2022/07/28 00:46:48;;;;;;;2.67;1.60;;;10.90;99.90;;;;;;5009628;28;20494;-52
2022/07/28 00:49:16;;;;;;;2.43;1.90;;;10.80;99.90;;;;;;5011048;28;20905;-53
2022/07/28 00:51:43;;;;;;;4.10;1.80;;;10.80;99.90;;;;;;5008665;28;20545;-53
2022/07/28 00:54:10;;;;;;;4.80;1.93;;;10.70;99.90;;;;;;5010510;28;20898;-53
2022/07/28 00:56:36;;;;;;;3.00;1.70;;;10.60;99.90;;;;;;5013604;28;20491;-53
2022/07/28 00:59:03;;;;;;;4.47;2.27;;;10.70;99.90;;;;;;5011603;28;20951;-52
2022/07/28 01:01:29;;;;;;;21.27;2.40;;;10.70;99.90;;;;;;5007252;28;20479;-53
2022/07/28 01:04:00;;;;;;;4.17;1.90;;;10.70;99.90;;;;;;5014519;28;20497;-52
2022/07/28 01:06:48;;;;;;;2.60;1.90;;;10.60;99.90;;;;;;5009166;28;20554;-52
2022/07/28 01:09:28;;;;;;;4.17;2.20;;;10.50;99.90;;;;;;5005992;28;20509;-52
2022/07/28 01:12:01;;;;;;;2.60;1.60;;;10.50;99.90;;;;;;5000162;28;20519;-54
2022/07/28 01:14:36;;;;;;;1.77;1.67;;;10.40;99.90;;;;;;5008108;28;20491;-53
2022/07/28 01:17:09;;;;;;;2.40;2.00;;;10.20;99.90;;;;;;5008717;28;20969;-53
2022/07/28 01:19:43;;;;;;;4.37;2.30;;;10.20;99.90;;;;;;5006959;28;20978;-53
2022/07/28 01:22:15;;;;;;;7.80;1.80;;;10.30;99.90;;;;;;5003160;28;21014;-53
2022/07/28 01:24:49;;;;;;;1.77;1.67;;;10.30;99.90;;;;;;5008629;28;20500;-53
2022/07/28 01:27:35;;;;;;;5.80;1.63;;;10.20;99.90;;;;;;5006163;28;20459;-54
2022/07/28 01:30:05;;;;;;;8.10;3.00;;;10.20;99.90;;;;;;5006244;28;20527;-53
2022/07/28 01:32:38;;;;;;;2.70;1.80;;;10.10;99.90;;;;;;4995181;28;20994;-52
2022/07/28 01:35:11;;;;;;;3.43;2.00;;;10.10;99.90;;;;;;5008081;28;20464;-52
2022/07/28 01:37:43;;;;;;;5.70;2.07;;;10.10;99.90;;;;;;5006624;28;20459;-53
2022/07/28 01:40:13;;;;;;;3.27;1.70;;;10.00;99.90;;;;;;5006804;28;20475;-53
2022/07/28 01:42:44;;;;;;;5.20;2.47;;;10.00;99.90;;;;;;5007555;28;20499;-54
2022/07/28 01:45:13;;;;;;;4.43;2.60;;;9.90;99.90;;;;;;4999262;28;21415;-51
2022/07/28 01:47:43;;;;;;;2.77;1.70;;;9.80;99.90;;;;;;5008926;28;20541;-52
2022/07/28 01:50:13;;;;;;;5.57;2.20;;;9.90;99.90;;;;;;5006159;28;20464;-54
2022/07/28 01:52:41;;;;;;;7.30;1.80;;;9.90;99.90;;;;;;5010862;28;20997;-52
2022/07/28 01:55:10;;;;;;;2.23;1.80;;;9.70;99.90;;;;;;5003479;28;20523;-53
2022/07/28 01:57:37;;;;;;;2.33;1.40;;;9.80;99.90;;;;;;5005473;28;20608;-52
2022/07/28 02:00:08;;;;;;;2.93;1.60;;;9.80;99.90;;;;;;5007301;28;20452;-52
2022/07/28 02:02:36;;;;;;;2.37;1.80;;;9.80;99.90;;;;;;5004262;28;20998;-52
2022/07/28 02:05:05;;;;;;;1.80;1.70;;;9.80;99.90;;;;;;5003678;28;20954;-52
2022/07/28 02:07:33;;;;;;;2.13;1.83;;;9.70;99.90;;;;;;5009847;28;20464;-53
2022/07/28 02:10:01;;;;;;;3.80;1.63;;;9.70;99.90;;;;;;5004315;28;20462;-52
2022/07/28 02:12:28;;;;;;;3.50;2.23;;;9.70;99.90;;;;;;5009363;28;21062;-54
2022/07/28 02:14:58;;;;;;;4.80;2.27;;;9.70;99.90;;;;;;5010493;28;20464;-52
2022/07/28 02:17:28;;;;;;;2.23;1.93;;;9.60;99.90;;;;;;4998104;28;20518;-52
2022/07/28 02:19:56;;;;;;;2.30;1.57;;;9.50;99.90;;;;;;5001108;28;20460;-52
2022/07/28 02:22:26;;;;;;;5.93;2.20;;;9.50;99.90;;;;;;4996971;28;20547;-52
2022/07/28 02:24:54;;;;;;;2.80;1.77;;;9.50;99.90;;;;;;5003122;28;20949;-53
2022/07/28 02:27:24;;;;;;;3.97;2.37;;;9.50;99.90;;;;;;5006867;28;20881;-53
2022/07/28 02:30:05;;;;;;;3.10;1.80;;;9.40;98.90;;;;;;5008049;28;20464;-53
2022/07/28 02:32:38;;;;;;;4.43;1.80;;;9.40;98.40;;;;;;5009129;28;20840;-53
2022/07/28 02:35:09;;;;;;;3.37;2.00;;;9.40;90.70;;;;;;5007101;28;21292;-52
2022/07/28 02:37:40;;;;;;;4.80;2.20;;;9.50;87.80;;;;;;5006773;28;20457;-52
2022/07/28 02:40:12;;;;;;;4.40;2.20;;;9.50;96.50;;;;;;5002471;28;20464;-52
2022/07/28 02:42:41;;;;;;;2.30;2.00;;;9.60;95.00;;;;;;5002706;28;20482;-53
2022/07/28 02:45:11;;;;;;;3.17;1.70;;;9.50;99.90;;;;;;5009050;28;20468;-52
2022/07/28 02:47:45;;;;;;;4.70;2.07;;;9.50;96.10;;;;;;5005262;28;20472;-53
2022/07/28 02:50:14;;;;;;;3.87;2.07;;;9.50;99.90;;;;;;4999634;28;20590;-52
2022/07/28 02:52:44;;;;;;;1.77;1.60;;;9.40;99.90;;;;;;5008573;28;20537;-53
2022/07/28 02:55:14;;;;;;;3.80;2.00;;;9.50;90.40;;;;;;5008590;28;20525;-52
2022/07/28 02:57:41;;;;;;;3.53;1.73;;;9.40;96.10;;;;;;5013041;28;20595;-53
2022/07/28 03:00:09;;;;;;;6.23;1.90;;;9.30;93.80;;;;;;5007818;28;20841;-54
2022/07/28 03:02:37;;;;;;;6.27;1.70;;;9.40;96.10;;;;;;5009762;28;20542;-53
2022/07/28 03:05:06;;;;;;;3.53;1.60;;;9.40;96.80;;;;;;5009867;28;20526;-54
2022/07/28 03:07:35;;;;;;;5.90;1.80;;;9.40;99.90;;;;;;5006730;28;20487;-52
2022/07/28 03:10:04;;;;;;;5.87;1.80;;;9.30;98.40;;;;;;5008197;28;20451;-53
2022/07/28 03:12:30;;;;;;;2.67;2.07;;;9.30;99.40;;;;;;5008461;28;20475;-54
2022/07/28 03:14:57;;;;;;;2.83;1.83;;;9.30;99.90;;;;;;5009987;28;20459;-51
2022/07/28 03:17:24;;;;;;;3.17;1.70;;;9.30;99.90;;;;;;5000164;28;20507;-53
2022/07/28 03:19:50;;;;;;;2.00;1.90;;;9.30;96.80;;;;;;5005417;28;20459;-52
2022/07/28 03:22:17;;;;;;;1.73;1.63;;;9.30;99.90;;;;;;5004602;28;20483;-52
2022/07/28 03:24:49;;;;;;;2.77;1.80;;;9.20;99.90;;;;;;5002680;28;20474;-52
2022/07/28 03:27:24;;;;;;;2.90;1.80;;;9.20;85.20;;;;;;5002845;28;20471;-52
2022/07/28 03:29:55;;;;;;;7.60;2.00;;;9.20;97.20;;;;;;5009682;28;20459;-52
2022/07/28 03:32:23;;;;;;;2.50;1.80;;;9.20;99.90;;;;;;4999244;28;20500;-52
2022/07/28 03:34:51;;;;;;;3.27;1.87;;;9.10;99.90;;;;;;5003884;28;20496;-52
2022/07/28 03:37:25;;;;;;;1.60;1.50;;;9.10;96.10;;;;;;5007479;28;20474;-52
2022/07/28 03:39:54;;;;;;;2.37;1.93;;;9.10;99.20;;;;;;5000887;28;21016;-52
2022/07/28 03:42:23;;;;;;;2.03;1.80;;;9.00;99.90;;;;;;4999990;28;21018;-53
2022/07/28 03:44:51;;;;;;;3.77;1.90;;;9.10;99.90;;;;;;5008866;28;20463;-52
2022/07/28 03:47:22;;;;;;;2.40;1.83;;;9.10;99.90;;;;;;5002995;28;20475;-53
2022/07/28 03:49:49;;;;;;;7.17;3.53;;;9.00;99.90;;;;;;5008569;28;20463;-53
2022/07/28 03:52:15;;;;;;;1.60;1.50;;;9.00;99.90;;;;;;5006304;28;20541;-52
2022/07/28 03:54:42;;;;;;;4.00;2.00;;;9.00;97.00;;;;;;5009077;28;21011;-52
2022/07/28 03:57:09;;;;;;;4.33;2.03;;;9.10;92.80;;;;;;5002275;28;20950;-53
2022/07/28 03:59:37;;;;;;;4.40;2.43;;;9.10;97.10;;;;;;5002330;28;20461;-52
2022/07/28 04:02:03;;;;;;;3.50;1.97;;;9.10;98.40;;;;;;5006385;28;21008;-52
2022/07/28 04:04:30;;;;;;;2.40;2.10;;;9.00;99.90;;;;;;4996089;28;20484;-52
2022/07/28 04:06:57;;;;;;;2.80;2.13;;;9.10;99.90;;;;;;5007283;28;20463;-52
2022/07/28 04:09:23;;;;;;;2.10;1.80;;;9.20;99.90;;;;;;5006027;28;20464;-52
2022/07/28 04:11:50;;;;;;;3.13;1.90;;;9.20;99.90;;;;;;5002866;28;20931;-52
2022/07/28 04:14:17;;;;;;;3.10;1.67;;;9.20;98.60;;;;;;5007669;28;20452;-52
2022/07/28 04:16:44;;;;;;;2.13;1.93;;;9.20;93.60;;;;;;5003583;28;20899;-52
2022/07/28 04:19:11;;;;;;;4.17;2.60;;;9.30;99.90;;;;;;5007211;28;20459;-52
2022/07/28 04:21:38;;;;;;;5.70;2.17;;;9.30;99.90;;;;;;5005669;28;20488;-52
2022/07/28 04:24:05;;;;;;;2.43;1.83;;;9.30;99.90;;;;;;5009444;28;20491;-52
2022/07/28 04:26:32;;;;;;;4.10;2.20;;;9.40;99.90;;;;;;5010531;28;20459;-53
2022/07/28 04:28:58;;;;;;;2.00;1.60;;;9.40;96.10;;;;;;5010547;28;20455;-52
2022/07/28 04:31:25;;;;;;;3.43;1.80;;;9.50;87.10;;;;;;5008343;28;20463;-52
2022/07/28 04:33:53;;;;;;;3.17;2.17;;;9.60;93.30;;;;;;5013812;28;20455;-51
2022/07/28 04:36:19;;;;;;;3.23;1.93;;;9.70;91.20;;;;;;5001965;28;20513;-51
2022/07/28 04:38:46;;;;;;;2.13;1.90;;;9.70;93.20;;;;;;5007169;28;20463;-53
2022/07/28 04:41:13;;;;;;;2.13;2.03;;;9.70;95.20;;;;;;5012273;28;20459;-53
2022/07/28 04:43:40;;;;;;;3.03;2.47;;;9.80;97.60;;;;;;5012272;28;20877;-51
2022/07/28 04:46:06;;;;;;;2.53;2.10;;;9.90;99.90;;;;;;5011510;28;20826;-53
2022/07/28 04:48:33;;;;;;;2.00;1.60;;;10.00;99.90;;;;;;5013087;28;20517;-53
2022/07/28 04:51:01;;;;;;;4.87;1.60;;;10.00;99.60;;;;;;5012556;28;20487;-52
2022/07/28 04:53:29;;;;;;;3.13;1.97;;;10.20;98.70;;;;;;5007277;28;20484;-52
2022/07/28 04:55:56;;;;;;;5.10;1.87;;;10.30;94.70;;;;;;5011371;28;20509;-52
2022/07/28 04:58:23;;;;;;;2.37;2.10;;;10.40;94.70;;;;;;5010374;28;20530;-52
2022/07/28 05:00:50;;;;;;;4.30;2.50;;;10.50;99.10;;;;;;5010243;28;20510;-52
2022/07/28 05:03:17;;;;;;;2.47;2.27;;;10.60;99.90;;;;;;5010556;28;20483;-52
2022/07/28 05:05:44;;;;;;;2.80;1.90;;;10.70;99.90;;;;;;5011487;28;20546;-52
2022/07/28 05:08:12;;;;;;;3.23;2.00;;;10.80;99.90;;;;;;5003717;28;20464;-53
2022/07/28 05:10:38;;;;;;;2.63;2.43;;;10.90;99.90;;;;;;5009416;28;20510;-52
2022/07/28 05:13:06;;;;;;;3.30;2.37;;;11.10;99.90;;;;;;5001352;28;20561;-52
2022/07/28 05:15:33;;;;;;;5.60;2.17;;;11.20;99.90;;;;;;4997387;28;20518;-52
2022/07/28 05:18:00;;;;;;;2.70;2.30;;;11.30;99.90;;;;;;5007002;28;21067;-52
2022/07/28 05:20:27;;;;;;;5.80;2.23;;;11.40;99.90;;;;;;5006400;28;20459;-52
2022/07/28 05:22:53;;;;;;;3.80;2.50;;;11.60;99.90;;;;;;5004916;28;20560;-51
2022/07/28 05:25:23;;;;;;;5.47;2.50;;;11.70;99.90;;;;;;5008102;28;20517;-52
2022/07/28 05:27:51;;;;;;;6.20;2.77;;;11.80;99.90;;;;;;4999447;28;20455;-52
2022/07/28 05:30:18;;;;;;;8.47;2.40;;;11.90;99.90;;;;;;5004523;28;20588;-52
2022/07/28 05:32:46;;;;;;;4.17;1.90;;;12.00;99.90;;;;;;5003705;28;20489;-52
2022/07/28 05:35:13;;;;;;;7.23;2.57;;;12.10;99.90;;;;;;5011764;28;20492;-52
2022/07/28 05:37:40;;;;;;;7.03;2.27;;;12.30;99.90;;;;;;5008413;28;20501;-52
2022/07/28 05:40:12;;;;;;;3.50;1.90;;;12.40;99.90;;;;;;5005885;28;20545;-53
2022/07/28 05:42:40;;;;;;;4.33;1.70;;;12.40;99.90;;;;;;5000988;28;20471;-52
2022/07/28 05:45:09;;;;;;;9.67;2.63;;;12.50;99.90;;;;;;5002902;28;20542;-53
2022/07/28 05:47:41;;;;;;;7.47;2.33;;;12.60;99.90;;;;;;5006694;28;20866;-52
2022/07/28 05:50:09;;;;;;;7.57;2.53;;;12.70;99.90;;;;;;5006714;28;20463;-52
2022/07/28 05:52:35;;;;;;;5.50;2.30;;;12.80;99.90;;;;;;5003998;28;20524;-52
2022/07/28 05:55:02;;;;;;;4.37;2.00;;;12.90;99.90;;;;;;5005644;28;20491;-53
2022/07/28 05:57:28;;;;;;;7.23;2.37;;;13.00;99.90;;;;;;5011985;28;20467;-53
2022/07/28 05:59:56;;;;;;;3.17;2.30;;;13.10;99.90;;;;;;5004593;28;21012;-52
2022/07/28 06:02:23;;;;;;;11.80;2.07;;;13.20;99.90;;;;;;5009362;28;20553;-53
2022/07/28 06:04:50;;;;;;;9.37;2.60;;;13.20;99.90;;;;;;5002115;28;20567;-53
2022/07/28 06:07:16;;;;;;;10.80;2.30;;;13.30;99.90;;;;;;5009744;28;20452;-53
2022/07/28 06:09:43;;;;;;;8.23;1.70;;;13.40;99.90;;;;;;5005726;28;20806;-52
2022/07/28 06:12:10;;;;;;;4.60;1.60;;;13.50;99.90;;;;;;5008089;28;20557;-52
2022/07/28 06:14:36;;;;;;;7.70;2.07;;;13.50;99.90;;;;;;5001531;28;20452;-52
2022/07/28 06:17:04;;;;;;;5.90;1.87;;;13.60;99.90;;;;;;5005021;28;20519;-52
2022/07/28 06:19:31;;;;;;;5.00;1.77;;;13.70;99.90;;;;;;5002718;28;20900;-52
2022/07/28 06:21:57;;;;;;;14.90;2.53;;;13.70;80.60;;;;;;5008480;28;20525;-51
2022/07/28 06:24:24;;;;;;;2.80;1.80;;;13.80;21.00;;;;;;5008968;28;20527;-51
2022/07/28 06:26:51;;;;;;;3.17;1.40;;;14.00;24.30;;;;;;5007559;28;20463;-51
2022/07/28 06:29:19;;;;;;;17.07;2.67;;;14.10;33.70;;;;;;5004012;28;20976;-51
2022/07/28 06:31:46;;;;;;;5.73;1.70;;;14.30;40.90;;;;;;5000101;28;20486;-51
2022/07/28 06:34:14;;;;;;;16.47;2.07;;;14.40;49.80;;;;;;5002660;28;20518;-51
2022/07/28 06:36:40;;;;;;;4.27;2.10;;;14.40;53.20;;;;;;5010399;28;20522;-51
2022/07/28 06:39:07;;;;;;;15.73;2.10;;;14.40;52.50;;;;;;5010117;28;20459;-51
2022/07/28 06:41:34;;;;;;;8.97;2.07;;;14.50;51.40;;;;;;5008798;28;20507;-51
2022/07/28 06:44:00;;;;;;;7.03;1.93;;;14.50;51.30;;;;;;5003864;28;21122;-52
2022/07/28 06:46:27;;;;;;;5.20;1.90;;;14.60;52.50;;;;;;5010042;28;20521;-51
2022/07/28 06:48:53;;;;;;;7.90;2.27;;;14.80;56.70;;;;;;5004014;28;20583;-51
2022/07/28 06:51:22;;;;;;;5.53;1.97;;;14.80;64.10;;;;;;4998902;28;20469;-52
2022/07/28 06:53:49;;;;;;;8.30;2.13;;;14.80;63.80;;;;;;5002255;28;20494;-52
2022/07/28 06:56:15;;;;;;;6.47;2.07;;;15.00;67.90;;;;;;5005968;28;20466;-52
2022/07/28 06:58:42;;;;;;;2.80;1.23;;;15.00;68.30;;;;;;5005168;28;20820;-52
2022/07/28 07:01:09;;;;;;;5.93;1.73;;;15.10;69.20;;;;;;5006453;28;20459;-53
2022/07/28 07:03:35;;;;;;;1.67;1.47;;;15.20;75.60;;;;;;4997243;28;20591;-52
2022/07/28 07:06:02;;;;;;;5.20;1.97;;;15.20;75.10;;;;;;5008426;28;20460;-53
2022/07/28 07:08:30;;;;;;;6.47;2.10;;;15.30;78.60;;;;;;5003294;28;20459;-53
2022/07/28 07:10:56;;;;;;;5.10;2.27;;;15.30;86.50;;;;;;5009741;28;20456;-53
2022/07/28 07:13:24;;;;;;;6.60;1.90;;;15.40;85.90;;;;;;5000101;28;20484;-53
2022/07/28 07:15:50;;;;;;;6.17;1.90;;;15.50;83.30;;;;;;5003025;28;20494;-52
2022/07/28 07:18:17;;;;;;;5.53;2.00;;;15.60;84.70;;;;;;5001367;28;20538;-52
2022/07/28 07:20:43;;;;;;;3.40;1.30;;;15.60;92.40;;;;;;5003336;28;20452;-52
2022/07/28 07:23:10;;;;;;;5.50;1.50;;;15.60;99.90;;;;;;5000500;28;20538;-52
2022/07/28 07:25:38;;;;;;;5.37;1.50;;;15.70;99.90;;;;;;5011127;28;20479;-52
2022/07/28 07:28:05;;;;;;;8.73;1.90;;;15.80;99.90;;;;;;4996456;28;20845;-53
2022/07/28 07:30:31;;;;;;;4.50;1.57;;;15.80;99.90;;;;;;5003429;28;20547;-52
2022/07/28 07:32:58;;;;;;;8.37;2.10;;;15.90;99.90;;;;;;5010403;28;20487;-52
2022/07/28 07:35:25;;;;;;;3.10;1.70;;;15.90;99.90;;;;;;5011997;28;20863;-52
2022/07/28 07:37:52;;;;;;;8.60;1.93;;;15.90;99.90;;;;;;5009157;28;20466;-52
2022/07/28 07:40:18;;;;;;;9.50;2.10;;;16.00;99.90;;;;;;5007603;28;20471;-52
2022/07/28 07:42:46;;;;;;;5.33;1.47;;;16.10;99.90;;;;;;5004845;28;20482;-52
2022/07/28 07:45:13;;;;;;;2.63;1.73;;;16.20;99.90;;;;;;5010149;28;21070;-52
2022/07/28 07:47:40;;;;;;;5.63;2.50;;;16.30;99.90;;;;;;5014739;28;20471;-52
2022/07/28 07:50:07;;;;;;;16.10;2.60;;;16.40;99.90;;;;;;5006178;28;20451;-52
2022/07/28 07:52:34;;;;;;;5.93;1.97;;;16.40;99.90;;;;;;5004371;28;20833;-52
2022/07/28 07:55:01;;;;;;;7.00;2.60;;;16.40;99.90;;;;;;5007062;28;20506;-52
2022/07/28 07:57:28;;;;;;;7.67;1.97;;;16.50;99.90;;;;;;5003888;28;20467;-52
2022/07/28 07:59:56;;;;;;;4.97;1.70;;;16.60;99.90;;;;;;5010187;28;20860;-52
2022/07/28 08:02:23;;;;;;;10.17;2.33;;;16.70;99.90;;;;;;5012822;28;21026;-52
2022/07/28 08:04:49;;;;;;;28.43;2.07;;;16.80;99.90;;;;;;5010613;28;20917;-52
2022/07/28 08:07:16;;;;;;;7.30;1.60;;;16.90;99.90;;;;;;5006987;28;20464;-53
2022/07/28 08:09:43;;;;;;;7.13;2.10;;;17.00;99.90;;;;;;5008274;28;20918;-52
2022/07/28 08:12:09;;;;;;;12.63;2.00;;;17.00;99.90;;;;;;4998892;28;20622;-51
2022/07/28 08:14:36;;;;;;;4.47;1.70;;;17.00;99.90;;;;;;5009071;28;20495;-52
2022/07/28 08:17:04;;;;;;;3.57;1.70;;;17.00;99.90;;;;;;5002686;28;20490;-52
2022/07/28 08:19:30;;;;;;;6.47;1.77;;;17.00;99.90;;;;;;5007660;28;20478;-52
2022/07/28 08:21:57;;;;;;;7.73;1.90;;;16.90;99.90;;;;;;5012263;28;20484;-52
2022/07/28 08:24:24;;;;;;;4.10;1.37;;;16.90;99.90;;;;;;5003256;28;20475;-52
2022/07/28 08:26:51;;;;;;;8.20;2.93;;;16.90;99.90;;;;;;5008143;28;20922;-53
2022/07/28 08:29:18;;;;;;;2.53;1.50;;;17.00;99.90;;;;;;5008495;28;20584;-52
2022/07/28 08:31:44;;;;;;;2.93;1.80;;;17.00;99.90;;;;;;5005886;28;21051;-52
2022/07/28 08:34:12;;;;;;;5.67;1.70;;;17.10;99.90;;;;;;5010539;28;20460;-52
2022/07/28 08:36:39;;;;;;;6.87;2.23;;;17.20;99.90;;;;;;5005973;28;20456;-53
2022/07/28 08:39:05;;;;;;;2.90;1.70;;;17.20;99.90;;;;;;5011019;28;20455;-52
2022/07/28 08:41:39;;;;;;;4.03;1.67;;;17.40;99.90;;;;;;5007654;28;20540;-52
2022/07/28 08:44:07;;;;;;;14.00;2.50;;;17.40;99.90;;;;;;5007493;28;20463;-52
2022/07/28 08:46:35;;;;;;;2.40;1.57;;;17.50;99.90;;;;;;5010680;28;21030;-52
2022/07/28 08:49:05;;;;;;;1.97;1.30;;;17.60;99.90;;;;;;5011607;28;20459;-53
2022/07/28 08:51:34;;;;;;;6.13;1.77;;;17.70;99.90;;;;;;5002569;28;21033;-52
2022/07/28 08:54:02;;;;;;;3.60;1.60;;;17.70;99.90;;;;;;5007106;28;20486;-53
2022/07/28 08:56:29;;;;;;;3.00;1.43;;;17.70;99.90;;;;;;5005236;28;20462;-51
2022/07/28 08:58:57;;;;;;;13.33;1.60;;;17.90;99.90;;;;;;5006562;28;20487;-52
2022/07/28 09:01:24;;;;;;;3.40;1.53;;;18.00;99.90;;;;;;5010812;28;20537;-53
2022/07/28 09:03:51;;;;;;;3.63;1.43;;;18.00;99.90;;;;;;5011296;28;20891;-52
2022/07/28 09:06:21;;;;;;;2.90;1.50;;;18.10;99.90;;;;;;5010315;28;20545;-52
2022/07/28 09:08:49;;;;;;;3.13;1.57;;;18.10;99.90;;;;;;5011302;28;20487;-53
2022/07/28 09:11:15;;;;;;;9.37;1.87;;;18.30;99.90;;;;;;5011916;28;20529;-54
2022/07/28 09:13:42;;;;;;;7.73;1.90;;;18.50;99.90;;;;;;5013485;28;20513;-52
2022/07/28 09:16:09;;;;;;;14.13;2.30;;;18.60;99.90;;;;;;5013569;28;20447;-52
2022/07/28 09:18:36;;;;;;;4.37;1.50;;;18.80;99.90;;;;;;5004651;28;20461;-51
2022/07/28 09:21:02;;;;;;;7.13;2.20;;;18.80;99.90;;;;;;5010540;28;20455;-51
2022/07/28 09:23:43;;;;;;;10.23;2.57;;;18.80;99.90;;;;;;5012359;28;20839;-52
2022/07/28 09:26:12;;;;;;;3.43;2.03;;;18.90;99.90;;;;;;4996884;28;21247;-52
2022/07/28 09:28:48;;;;;;;4.60;2.03;;;19.00;99.90;;;;;;5013521;28;20510;-52
2022/07/28 09:31:15;;;;;;;5.43;1.47;;;18.90;99.90;;;;;;5001175;28;20451;-51
2022/07/28 09:33:53;;;;;;;5.17;2.23;;;18.80;99.90;;;;;;5005123;28;20535;-51
2022/07/28 09:36:21;;;;;;;5.73;1.90;;;18.70;99.90;;;;;;5004315;28;20463;-51
2022/07/28 09:38:47;;;;;;;3.53;1.33;;;18.80;99.90;;;;;;5003137;28;20460;-52
2022/07/28 09:41:20;;;;;;;14.10;1.90;;;18.80;99.90;;;;;;5011217;28;21016;-51
2022/07/28 09:43:47;;;;;;;6.63;1.80;;;18.70;99.90;;;;;;5012540;28;20460;-52
2022/07/28 09:46:15;;;;;;;8.50;2.00;;;18.70;99.90;;;;;;5001712;28;20509;-51
2022/07/28 09:48:54;;;;;;;4.47;1.53;;;18.70;99.90;;;;;;5003905;28;20494;-52
2022/07/28 09:51:22;;;;;;;4.23;1.50;;;18.70;99.90;;;;;;5001528;28;20451;-51
2022/07/28 09:53:50;;;;;;;3.20;1.70;;;18.70;99.90;;;;;;5004146;28;20460;-51
2022/07/28 09:56:19;;;;;;;3.00;2.00;;;18.60;99.90;;;;;;5011511;28;20450;-51
2022/07/28 09:58:56;;;;;;;7.30;1.90;;;18.60;99.90;;;;;;5001594;28;20465;-51
2022/07/28 10:01:23;;;;;;;5.90;1.97;;;18.70;99.90;;;;;;5002439;28;20479;-52
2022/07/28 10:03:52;;;;;;;2.60;1.70;;;18.70;99.90;;;;;;5012019;28;20486;-52
2022/07/28 10:06:26;;;;;;;4.63;1.60;;;18.90;99.90;;;;;;5008132;28;20483;-52
2022/07/28 10:08:53;;;;;;;5.43;1.57;;;19.10;99.90;;;;;;5001563;28;20475;-51
2022/07/28 10:11:25;;;;;;;5.33;1.93;;;19.30;99.90;;;;;;5006253;28;20463;-52
2022/07/28 10:13:54;;;;;;;2.53;1.30;;;19.40;99.90;;;;;;5002516;28;20456;-51
2022/07/28 10:16:23;;;;;;;11.93;1.90;;;19.50;99.90;;;;;;5012305;28;20483;-51
2022/07/28 10:18:49;;;;;;;3.70;1.70;;;19.70;1.40;;;;;;5012323;28;20459;-51
2022/07/28 10:21:18;;;;;;;4.60;1.50;;;19.80;99.90;;;;;;5008485;28;20953;-51
2022/07/28 10:23:48;;;;;;;4.10;2.00;;;19.90;99.90;;;;;;5005939;28;20547;-51
2022/07/28 10:26:16;;;;;;;5.70;1.90;;;19.90;99.90;;;;;;5004199;28;20549;-52
2022/07/28 10:28:48;;;;;;;5.63;1.87;;;19.80;99.90;;;;;;5002742;28;20882;-52
2022/07/28 10:31:21;;;;;;;6.27;2.03;;;19.50;99.90;;;;;;5011469;28;20463;-51
2022/07/28 10:33:53;;;;;;;5.10;1.63;;;19.40;99.90;;;;;;5007964;28;20535;-51
2022/07/28 10:36:24;;;;;;;6.13;1.87;;;19.60;99.90;;;;;;5005335;28;20440;-51
2022/07/28 10:38:54;;;;;;;6.40;1.70;;;19.70;99.90;;;;;;5002637;28;20835;-51
2022/07/28 10:41:23;;;;;;;3.60;1.60;;;19.90;99.90;;;;;;5002439;28;20828;-51
2022/07/28 10:43:52;;;;;;;13.27;2.03;;;20.20;99.90;;;;;;5001523;28;20484;-52
2022/07/28 10:46:19;;;;;;;6.17;1.40;;;20.40;99.90;;;;;;4998100;28;20856;-51
2022/07/28 10:48:46;;;;;;;3.13;1.10;;;20.60;99.90;;;;;;5001307;28;20456;-52
2022/07/28 10:51:13;;;;;;;7.00;1.73;;;20.80;99.90;;;;;;5002453;28;20510;-52
2022/07/28 10:53:46;;;;;;;6.30;1.70;;;21.00;99.90;;;;;;5008038;28;20460;-52
2022/07/28 10:56:19;;;;;;;3.43;1.40;;;21.00;99.90;;;;;;5010900;28;20880;-52
2022/07/28 10:58:50;;;;;;;4.57;1.50;;;21.10;99.90;;;;;;5000426;28;21007;-51
2022/07/28 11:01:37;;;;;;;6.50;1.37;;;21.00;99.90;;;;;;5001132;28;20506;-51
2022/07/28 11:04:04;;;;;;;2.20;1.60;;;21.00;99.90;;;;;;5011493;28;20448;-51
2022/07/28 11:06:33;;;;;;;2.50;1.67;;;21.00;99.90;;;;;;5000883;28;20546;-51
2022/07/28 11:09:20;;;;;;;5.17;1.40;;;21.10;99.90;;;;;;5006544;28;20534;-51
2022/07/28 11:11:49;;;;;;;2.20;1.40;;;21.20;99.90;;;;;;5002313;28;20523;-51
2022/07/28 11:14:33;;;;;;;4.53;1.10;;;21.20;99.90;;;;;;5003944;28;20466;-51
2022/07/28 11:17:19;;;;;;;2.37;1.30;;;21.40;99.90;;;;;;5007164;28;20961;-51
2022/07/28 11:19:54;;;;;;;6.73;1.90;;;21.50;99.90;;;;;;4998621;28;20454;-51
2022/07/28 11:22:29;;;;;;;8.93;1.70;;;21.60;99.90;;;;;;5002449;28;20861;-51
2022/07/28 11:25:16;;;;;;;4.50;1.40;;;21.50;99.90;;;;;;5008986;28;20991;-52
2022/07/28 11:28:03;;;;;;;3.57;1.77;;;21.60;99.90;;;;;;5006645;28;20474;-51
2022/07/28 11:30:54;;;;;;;2.07;1.33;;;21.50;99.90;;;;;;5008157;28;20679;-50
2022/07/28 11:33:23;;;;;;;1.87;1.20;;;21.40;99.90;;;;;;4999448;28;20489;-51
2022/07/28 11:35:55;;;;;;;7.27;1.40;;;21.50;99.90;;;;;;4999628;28;20467;-50
2022/07/28 11:38:22;;;;;;;4.50;1.40;;;21.60;99.90;;;;;;4998644;28;20467;-51
2022/07/28 11:40:50;;;;;;;2.00;1.40;;;21.60;99.90;;;;;;5002939;28;20468;-52
2022/07/28 11:43:31;;;;;;;4.33;1.70;;;21.10;99.90;;;;;;5003972;28;20961;-51
2022/07/28 11:46:32;;;;;;;2.80;1.30;;;21.40;99.90;;;;;;5007027;28;20899;-51
2022/07/28 11:49:18;;;;;;;3.07;1.07;;;21.30;99.90;;;;;;5010899;28;20554;-50
2022/07/28 11:52:07;;;;;;;2.67;1.53;;;21.00;99.90;;;;;;5004313;28;20511;-51
2022/07/28 11:54:35;;;;;;;2.77;1.30;;;21.20;99.90;;;;;;5005505;28;20529;-51
2022/07/28 11:57:03;;;;;;;2.00;1.20;;;21.40;99.90;;;;;;5004077;28;20463;-51
2022/07/28 11:59:44;;;;;;;9.13;1.70;;;21.50;99.90;;;;;;5007976;28;20482;-50
2022/07/28 12:02:15;;;;;;;0.97;0.93;;;21.80;99.90;;;;;;5005538;28;20479;-51
2022/07/28 12:04:43;;;;;;;7.60;1.20;;;21.90;99.90;;;;;;4994142;28;20607;-50
2022/07/28 12:07:11;;;;;;;5.03;2.00;;;22.00;99.90;;;;;;5007402;28;20480;-51
2022/07/28 12:09:38;;;;;;;4.13;2.00;;;21.90;99.90;;;;;;5006908;28;20499;-51
2022/07/28 12:12:07;;;;;;;9.80;1.43;;;21.80;99.90;;;;;;5002795;28;20492;-52
2022/07/28 12:14:39;;;;;;;3.90;1.60;;;21.60;99.90;;;;;;5001015;28;21028;-51
2022/07/28 12:17:05;;;;;;;7.40;1.80;;;21.40;99.90;;;;;;5007926;28;20957;-51
2022/07/28 12:19:32;;;;;;;6.93;1.00;;;21.40;99.90;;;;;;5004913;28;20526;-51
2022/07/28 12:22:00;;;;;;;1.90;1.10;;;21.60;99.90;;;;;;5001809;28;20537;-52
2022/07/28 12:24:28;;;;;;;5.33;1.23;;;21.90;99.90;;;;;;5003651;28;20518;-52
2022/07/28 12:26:56;;;;;;;3.23;1.20;;;22.20;99.90;;;;;;5009094;28;20494;-51
2022/07/28 12:29:26;;;;;;;10.53;1.60;;;22.20;99.90;;;;;;5003232;28;20460;-51
2022/07/28 12:31:54;;;;;;;4.77;1.73;;;22.10;99.90;;;;;;5002858;28;20555;-52
2022/07/28 12:34:21;;;;;;;3.60;1.10;;;22.20;99.90;;;;;;5008313;28;20915;-51
2022/07/28 12:36:48;;;;;;;2.93;1.43;;;22.20;99.90;;;;;;5006248;28;20513;-51
2022/07/28 12:39:18;;;;;;;3.03;1.20;;;22.10;99.90;;;;;;5000578;28;20877;-52
2022/07/28 12:41:45;;;;;;;2.50;1.43;;;22.20;99.90;;;;;;5008917;28;20846;-52
2022/07/28 12:44:11;;;;;;;1.23;1.00;;;22.30;99.90;;;;;;5008599;28;20487;-51
2022/07/28 12:46:38;;;;;;;3.80;1.30;;;22.50;99.90;;;;;;5009519;28;20535;-52
2022/07/28 12:49:18;;;;;;;2.87;1.00;;;22.70;99.90;;;;;;5010043;28;20463;-52
2022/07/28 12:51:45;;;;;;;1.33;1.03;;;22.70;99.90;;;;;;5001183;28;20488;-51
2022/07/28 12:54:13;;;;;;;2.90;1.50;;;22.80;99.90;;;;;;5008854;28;20513;-50
2022/07/28 12:56:48;;;;;;;2.03;0.97;;;22.90;99.90;;;;;;5009269;28;20454;-51